Time;durP1;ratioP1;P1;durP2;ratioP2;P2;SDS_P1;SDS_P2;PMS_P1;PMS_P2;Temp;Humidity;BMP_temperature;BMP_pressure;BME280_temperature;BME280_humidity;BME280_pressure;Samples;Min_cycle;Max_cycle;Signal;HPM_P1;HPM_P2
2021/04/14 00:02:04;;;;;;;13.90;12.50;;;;;;;16.89;64.54;99736.41;1737143;81;21133;-59
2021/04/14 00:04:35;;;;;;;13.40;11.90;;;;;;;16.89;64.53;99751.70;1746369;81;21162;-59
2021/04/14 00:07:04;;;;;;;13.28;11.90;;;;;;;16.88;64.49;99738.81;1751520;81;21636;-60
2021/04/14 00:09:31;;;;;;;12.80;11.50;;;;;;;16.88;64.47;99738.81;1755335;81;21207;-59
2021/04/14 00:12:01;;;;;;;14.10;12.60;;;;;;;16.88;64.41;99746.02;1740315;81;21176;-60
2021/04/14 00:14:30;;;;;;;13.25;11.85;;;;;;;16.87;64.39;99735.80;1723055;82;21154;-60
2021/04/14 00:16:58;;;;;;;12.40;11.20;;;;;;;16.86;64.38;99739.53;1739122;82;21230;-60
2021/04/14 00:19:27;;;;;;;13.55;11.97;;;;;;;16.87;64.36;99744.38;1738107;82;21629;-60
2021/04/14 00:21:57;;;;;;;14.35;11.90;;;;;;;16.87;64.30;99743.03;1737841;82;21028;-59
2021/04/14 00:24:28;;;;;;;11.93;10.72;;;;;;;16.86;64.30;99744.91;1729476;82;21202;-59
2021/04/14 00:26:55;;;;;;;13.35;11.75;;;;;;;16.84;64.27;99742.95;1724855;82;21158;-62
2021/04/14 00:29:23;;;;;;;12.15;10.88;;;;;;;16.85;64.23;99737.06;1738934;82;21462;-59
2021/04/14 00:31:52;;;;;;;12.35;10.98;;;;;;;16.84;64.21;99732.71;1737764;82;21150;-60
2021/04/14 00:34:21;;;;;;;13.10;11.35;;;;;;;16.84;64.17;99731.37;1732574;82;21587;-60
2021/04/14 00:36:48;;;;;;;13.60;11.00;;;;;;;16.84;64.17;99725.52;1739082;82;21139;-60
2021/04/14 00:39:21;;;;;;;12.20;10.98;;;;;;;16.83;64.17;99733.76;1736064;82;21150;-60
2021/04/14 00:41:48;;;;;;;12.07;10.82;;;;;;;16.84;64.12;99734.05;1738567;82;21233;-61
2021/04/14 00:44:17;;;;;;;11.68;10.48;;;;;;;16.83;64.10;99735.10;1738875;82;21587;-59
2021/04/14 00:46:44;;;;;;;12.13;10.90;;;;;;;16.83;64.06;99729.73;1722728;82;21146;-60
2021/04/14 00:49:13;;;;;;;12.53;11.22;;;;;;;16.82;64.05;99731.57;1736044;82;21169;-60
2021/04/14 00:51:42;;;;;;;12.78;11.48;;;;;;;16.83;64.00;99729.73;1734309;82;21146;-59
2021/04/14 00:54:11;;;;;;;12.00;10.78;;;;;;;16.82;63.98;99724.87;1717728;82;21604;-60
2021/04/14 00:56:39;;;;;;;11.97;10.75;;;;;;;16.81;63.99;99724.55;1729172;81;21201;-60
2021/04/14 00:59:09;;;;;;;12.25;11.03;;;;;;;16.82;63.93;99724.05;1719355;82;21648;-59
2021/04/14 01:01:37;;;;;;;11.57;10.35;;;;;;;16.81;63.92;99719.17;1727701;82;21225;-60
2021/04/14 01:04:05;;;;;;;11.85;10.65;;;;;;;16.79;63.88;99718.56;1722690;82;21203;-60
2021/04/14 01:06:32;;;;;;;11.75;10.53;;;;;;;16.80;63.86;99708.65;1729117;82;21272;-61
2021/04/14 01:09:00;;;;;;;12.75;11.45;;;;;;;16.79;63.82;99707.83;1730285;82;21638;-60
2021/04/14 01:11:29;;;;;;;11.63;10.43;;;;;;;16.79;63.81;99705.67;1738830;82;21198;-60
2021/04/14 01:13:59;;;;;;;11.45;10.30;;;;;;;16.79;63.79;99700.31;1706835;82;21149;-59
2021/04/14 01:16:28;;;;;;;11.97;10.70;;;;;;;16.78;63.76;99695.97;1732778;82;21173;-60
2021/04/14 01:18:57;;;;;;;11.95;10.72;;;;;;;16.77;63.75;99696.48;1733678;82;21457;-60
2021/04/14 01:21:35;;;;;;;11.70;10.50;;;;;;;16.78;63.75;99697.30;1738492;82;21333;-60
2021/04/14 01:24:09;;;;;;;10.93;9.60;;;;;;;16.78;63.73;99705.35;1733092;82;21195;-60
2021/04/14 01:26:37;;;;;;;13.18;10.25;;;;;;;16.77;63.68;99705.88;1737043;82;21601;-59
2021/04/14 01:29:10;;;;;;;11.83;10.08;;;;;;;16.76;63.68;99707.42;1724972;82;21158;-60
2021/04/14 01:31:40;;;;;;;11.78;10.63;;;;;;;16.76;63.65;99699.38;1710567;82;21170;-59
2021/04/14 01:34:14;;;;;;;11.38;10.28;;;;;;;16.75;63.64;99703.11;1734693;82;21621;-60
2021/04/14 01:36:42;;;;;;;10.78;9.70;;;;;;;16.75;63.62;99709.29;1727305;82;21167;-60
2021/04/14 01:39:11;;;;;;;11.70;10.50;;;;;;;16.74;63.64;99705.47;1738131;82;21181;-59
2021/04/14 01:41:42;;;;;;;11.35;10.25;;;;;;;16.73;63.60;99702.46;1738347;82;21583;-60
2021/04/14 01:44:10;;;;;;;11.38;10.28;;;;;;;16.73;63.58;99703.80;1736082;82;21371;-59
2021/04/14 01:46:40;;;;;;;11.05;9.95;;;;;;;16.73;63.56;99711.36;1729466;82;21206;-63
2021/04/14 01:49:10;;;;;;;10.75;9.68;;;;;;;16.73;63.54;99709.17;1720677;82;21566;-61
2021/04/14 01:51:39;;;;;;;11.22;10.13;;;;;;;16.73;63.52;99707.83;1734174;82;21161;-60
2021/04/14 01:54:09;;;;;;;10.82;9.73;;;;;;;16.72;63.48;99702.98;1735570;81;21431;-61
2021/04/14 01:56:38;;;;;;;10.85;9.63;;;;;;;16.71;63.46;99698.15;1723282;81;21213;-60
2021/04/14 01:59:06;;;;;;;9.85;8.85;;;;;;;16.71;63.41;99700.83;1730787;82;21234;-60
2021/04/14 02:01:34;;;;;;;10.40;9.30;;;;;;;16.71;63.44;99690.10;1730320;82;21162;-60
2021/04/14 02:04:03;;;;;;;9.53;8.63;;;;;;;16.71;63.38;99690.10;1731453;82;21147;-60
2021/04/14 02:06:32;;;;;;;9.25;8.35;;;;;;;16.71;63.35;99687.95;1736610;82;21174;-61
2021/04/14 02:08:59;;;;;;;11.28;9.30;;;;;;;16.70;63.33;99687.09;1729633;82;21415;-60
2021/04/14 02:11:26;;;;;;;10.55;9.43;;;;;;;16.69;63.33;99685.47;1735466;82;21142;-60
2021/04/14 02:13:54;;;;;;;10.00;9.00;;;;;;;16.70;63.27;99681.73;1728451;82;21123;-60
2021/04/14 02:16:23;;;;;;;10.35;8.78;;;;;;;16.69;63.27;99682.78;1737231;82;21194;-60
2021/04/14 02:18:52;;;;;;;8.88;7.97;;;;;;;16.70;63.25;99686.28;1765517;80;21111;-60
2021/04/14 02:21:20;;;;;;;11.40;9.63;;;;;;;16.70;63.22;99683.59;1774321;80;21314;-60
2021/04/14 02:23:49;;;;;;;10.08;9.08;;;;;;;16.69;63.20;99681.44;1776571;80;21174;-59
2021/04/14 02:26:20;;;;;;;9.68;8.75;;;;;;;16.69;63.18;99684.12;1761421;80;21130;-60
2021/04/14 02:28:48;;;;;;;9.45;8.55;;;;;;;16.69;63.14;99675.27;1770376;80;21166;-61
2021/04/14 02:31:29;;;;;;;10.03;9.03;;;;;;;16.69;63.14;99672.58;1773388;80;21173;-61
2021/04/14 02:33:49;;;;;;;10.40;9.30;;;;;;;16.69;63.12;99676.08;1773965;80;22028;-61
2021/04/14 02:36:16;;;;;;;10.68;8.75;;;;;;;16.68;63.09;99674.41;1772983;80;21640;-60
2021/04/14 02:38:45;;;;;;;9.33;8.43;;;;;;;16.68;63.09;99682.98;1767923;80;21166;-59
2021/04/14 02:41:55;;;;;;;9.53;8.50;;;;;;;16.71;63.07;99683.40;1825395;76;28288;-60
2021/04/14 02:44:23;;;;;;;9.40;8.30;;;;;;;16.67;63.05;99682.70;1786889;78;21130;-60
2021/04/14 02:46:53;;;;;;;9.05;8.10;;;;;;;16.68;63.00;99678.96;1789064;78;21178;-59
2021/04/14 02:49:20;;;;;;;9.23;8.33;;;;;;;16.67;63.00;99680.83;1795521;78;21135;-60
2021/04/14 02:51:49;;;;;;;11.03;9.15;;;;;;;16.67;62.96;99672.78;1810953;78;21071;-60
2021/04/14 02:54:17;;;;;;;8.85;7.95;;;;;;;16.67;62.95;99671.97;1810056;77;21197;-60
2021/04/14 02:56:46;;;;;;;9.73;8.73;;;;;;;16.66;62.96;99675.67;1786050;79;21194;-60
2021/04/14 02:59:14;;;;;;;9.90;8.90;;;;;;;16.66;62.92;99677.01;1779623;78;21362;-62
2021/04/14 03:01:43;;;;;;;11.20;8.03;;;;;;;16.65;62.94;99688.27;1784686;78;21129;-60
2021/04/14 03:04:12;;;;;;;9.25;8.35;;;;;;;16.65;62.94;99689.60;1793597;78;21161;-60
2021/04/14 03:06:39;;;;;;;8.85;7.92;;;;;;;16.65;62.94;99692.28;1785414;78;21173;-60
2021/04/14 03:09:09;;;;;;;8.65;7.85;;;;;;;16.65;62.91;99696.31;1806200;77;21149;-61
2021/04/14 03:11:39;;;;;;;9.28;8.28;;;;;;;16.63;62.90;99693.02;1783006;79;21189;-60
2021/04/14 03:14:10;;;;;;;9.03;8.23;;;;;;;16.64;62.92;99689.28;1796930;78;21169;-60
2021/04/14 03:16:38;;;;;;;9.05;8.15;;;;;;;16.64;62.88;99689.81;1805723;78;21174;-60
2021/04/14 03:19:07;;;;;;;8.83;7.92;;;;;;;16.63;62.85;99688.98;1782698;79;21637;-60
2021/04/14 03:21:34;;;;;;;9.08;8.18;;;;;;;16.61;62.84;99687.03;1794196;78;21119;-60
2021/04/14 03:24:04;;;;;;;8.38;7.58;;;;;;;16.63;62.79;99693.50;1787528;79;21957;-60
2021/04/14 03:26:32;;;;;;;8.40;7.60;;;;;;;16.62;62.78;99684.64;1790620;77;21123;-60
2021/04/14 03:29:03;;;;;;;9.68;8.55;;;;;;;16.62;62.77;99684.64;1805079;78;21141;-60
2021/04/14 03:31:33;;;;;;;8.70;7.72;;;;;;;16.62;62.77;99691.88;1775371;77;21586;-60
2021/04/14 03:34:01;;;;;;;8.38;7.47;;;;;;;16.61;62.77;99676.31;1804026;77;21602;-60
2021/04/14 03:36:28;;;;;;;8.18;7.37;;;;;;;16.61;62.73;99684.84;1781668;78;21267;-60
2021/04/14 03:38:55;;;;;;;8.95;8.15;;;;;;;16.60;62.73;99688.05;1784474;77;21259;-60
2021/04/14 03:41:28;;;;;;;8.43;7.37;;;;;;;16.61;62.74;99691.06;1807270;78;21126;-60
2021/04/14 03:43:56;;;;;;;8.50;7.60;;;;;;;16.60;62.73;99694.76;1812731;77;21808;-60
2021/04/14 03:46:24;;;;;;;9.70;7.75;;;;;;;16.60;62.72;99690.73;1802273;78;21145;-61
2021/04/14 03:48:52;;;;;;;8.55;7.37;;;;;;;16.60;62.69;99688.58;1819008;78;21758;-59
2021/04/14 03:51:20;;;;;;;8.18;7.35;;;;;;;16.59;62.69;99685.58;1800308;78;21202;-60
2021/04/14 03:53:48;;;;;;;7.83;7.03;;;;;;;16.59;62.71;99693.12;1796606;77;21170;-60
2021/04/14 03:56:18;;;;;;;8.43;7.53;;;;;;;16.59;62.68;99684.23;1815816;78;21141;-59
2021/04/14 03:58:50;;;;;;;7.28;6.58;;;;;;;16.60;62.67;99688.05;1807613;78;22323;-60
2021/04/14 04:01:24;;;;;;;8.93;8.03;;;;;;;16.59;62.67;99680.21;1801306;78;21370;-59
2021/04/14 04:03:52;;;;;;;7.83;7.12;;;;;;;16.59;62.63;99688.25;1812945;77;21201;-60
2021/04/14 04:06:23;;;;;;;7.75;6.95;;;;;;;16.59;62.63;99692.28;1802171;78;21160;-60
2021/04/14 04:08:52;;;;;;;8.18;7.37;;;;;;;16.58;62.61;99692.80;1824631;78;21116;-60
2021/04/14 04:11:22;;;;;;;7.60;6.80;;;;;;;16.59;62.63;99694.96;1807517;77;21212;-59
2021/04/14 04:13:51;;;;;;;8.68;7.40;;;;;;;16.58;62.62;99698.16;1809244;78;21173;-58
2021/04/14 04:16:19;;;;;;;8.88;6.90;;;;;;;16.59;62.61;99694.96;1805816;78;21173;-60
2021/04/14 04:18:50;;;;;;;7.72;6.30;;;;;;;16.59;62.56;99703.01;1802672;77;21172;-60
2021/04/14 04:21:18;;;;;;;8.00;6.85;;;;;;;16.58;62.56;99690.13;1817861;78;21117;-60
2021/04/14 04:23:46;;;;;;;7.55;6.75;;;;;;;16.58;62.55;99688.78;1817563;77;21188;-60
2021/04/14 04:26:14;;;;;;;7.22;6.53;;;;;;;16.58;62.50;99691.46;1795418;78;21378;-60
2021/04/14 04:28:41;;;;;;;7.90;6.78;;;;;;;16.59;62.48;99695.80;1797500;78;22142;-60
2021/04/14 04:31:10;;;;;;;8.15;6.72;;;;;;;16.59;62.47;99692.28;1802688;78;21146;-61
2021/04/14 04:33:38;;;;;;;7.40;6.70;;;;;;;16.59;62.45;99686.42;1805456;78;21189;-60
2021/04/14 04:36:07;;;;;;;7.83;7.12;;;;;;;16.59;62.42;99686.42;1809187;78;21598;-61
2021/04/14 04:38:34;;;;;;;7.30;6.55;;;;;;;16.60;62.39;99688.58;1804864;77;22407;-61
2021/04/14 04:41:03;;;;;;;7.72;6.78;;;;;;;16.60;62.37;99689.92;1789543;78;21178;-61
2021/04/14 04:43:31;;;;;;;7.92;6.42;;;;;;;16.60;62.32;99687.23;1778148;79;21090;-60
2021/04/14 04:45:58;;;;;;;7.10;6.30;;;;;;;16.58;62.29;99688.78;1771627;79;21686;-59
2021/04/14 04:48:26;;;;;;;7.80;6.58;;;;;;;16.60;62.27;99689.92;1769402;78;21205;-60
2021/04/14 04:50:53;;;;;;;7.20;6.50;;;;;;;16.59;62.26;99686.91;1768575;78;21253;-60
2021/04/14 04:53:22;;;;;;;7.15;6.45;;;;;;;16.59;62.20;99697.15;1772938;79;21143;-60
2021/04/14 04:55:49;;;;;;;9.00;7.17;;;;;;;16.60;62.18;99696.10;1788755;79;21182;-61
2021/04/14 04:58:17;;;;;;;6.78;6.08;;;;;;;16.60;62.14;99696.63;1770468;79;21162;-61
2021/04/14 05:00:46;;;;;;;7.78;6.33;;;;;;;16.60;62.12;99706.83;1770974;78;21202;-61
2021/04/14 05:03:14;;;;;;;7.55;6.65;;;;;;;16.60;62.10;99713.53;1797197;78;22471;-61
2021/04/14 05:05:42;;;;;;;7.55;6.85;;;;;;;16.61;62.06;99705.81;1781919;78;21127;-61
2021/04/14 05:08:10;;;;;;;7.67;6.37;;;;;;;16.62;62.08;99706.63;1768716;79;21182;-60
2021/04/14 05:10:38;;;;;;;6.58;5.87;;;;;;;16.54;62.00;99692.91;1800505;79;21639;-62
2021/04/14 05:13:07;;;;;;;7.22;6.50;;;;;;;16.62;61.97;99711.47;1794429;78;21171;-60
2021/04/14 05:15:38;;;;;;;6.80;6.10;;;;;;;16.62;61.95;99712.80;1759847;79;21256;-61
2021/04/14 05:18:07;;;;;;;7.10;6.40;;;;;;;16.63;61.90;99705.58;1762238;78;21138;-62
2021/04/14 05:20:35;;;;;;;7.62;6.83;;;;;;;16.62;61.88;99708.78;1787161;79;21197;-61
2021/04/14 05:23:04;;;;;;;7.05;5.62;;;;;;;16.61;61.81;99715.20;1784726;79;21149;-60
2021/04/14 05:25:32;;;;;;;6.50;5.75;;;;;;;16.61;61.79;99708.48;1765458;78;21614;-61
2021/04/14 05:28:06;;;;;;;6.60;5.97;;;;;;;16.62;61.80;99707.44;1770083;79;21375;-63
2021/04/14 05:30:32;;;;;;;7.62;5.97;;;;;;;16.62;61.76;99712.80;1768034;78;21142;-62
2021/04/14 05:33:00;;;;;;;6.97;6.28;;;;;;;16.63;61.70;99713.63;1768302;79;21143;-62
2021/04/14 05:35:28;;;;;;;6.45;5.83;;;;;;;16.62;61.69;99714.67;1764374;78;21158;-60
2021/04/14 05:37:55;;;;;;;6.90;5.92;;;;;;;16.62;61.64;99715.48;1779305;78;21151;-60
2021/04/14 05:40:23;;;;;;;6.25;5.62;;;;;;;16.63;61.62;99711.78;1763745;79;21934;-60
2021/04/14 05:42:51;;;;;;;6.87;6.17;;;;;;;16.63;61.59;99714.47;1778286;78;21170;-62
2021/04/14 05:45:29;;;;;;;6.72;6.03;;;;;;;16.63;61.52;99714.96;1768633;79;21202;-62
2021/04/14 05:47:56;;;;;;;6.87;6.22;;;;;;;16.64;61.52;99712.60;1777399;79;21152;-60
2021/04/14 05:50:25;;;;;;;7.58;6.62;;;;;;;16.64;61.47;99713.95;1791414;79;21626;-62
2021/04/14 05:52:52;;;;;;;6.05;5.50;;;;;;;16.63;61.45;99715.81;1786319;79;21188;-60
2021/04/14 05:55:20;;;;;;;7.00;6.15;;;;;;;16.63;61.41;99707.77;1798933;78;21176;-62
2021/04/14 05:57:47;;;;;;;6.12;5.53;;;;;;;16.64;61.37;99710.73;1779162;79;21174;-61
2021/04/14 06:00:16;;;;;;;6.85;6.25;;;;;;;16.64;61.35;99710.73;1797014;79;21161;-61
2021/04/14 06:02:44;;;;;;;6.75;6.05;;;;;;;16.65;61.33;99715.08;1782495;78;21122;-62
2021/04/14 06:05:14;;;;;;;6.12;5.53;;;;;;;16.64;61.28;99712.08;1792247;79;21386;-61
2021/04/14 06:07:43;;;;;;;6.87;5.92;;;;;;;16.65;61.24;99712.89;1775537;79;21183;-60
2021/04/14 06:10:12;;;;;;;7.62;6.17;;;;;;;16.65;61.22;99710.21;1792503;78;22066;-61
2021/04/14 06:12:40;;;;;;;7.62;6.17;;;;;;;16.65;61.18;99717.77;1773546;79;21586;-61
2021/04/14 06:15:11;;;;;;;7.05;6.33;;;;;;;16.65;61.20;99718.26;1767393;78;21161;-62
2021/04/14 06:17:40;;;;;;;6.95;6.35;;;;;;;16.65;61.11;99715.08;1786741;79;21214;-61
2021/04/14 06:20:09;;;;;;;6.00;5.28;;;;;;;16.65;61.11;99720.94;1775091;79;21154;-60
2021/04/14 06:22:37;;;;;;;7.08;5.87;;;;;;;16.66;61.04;99720.73;1770419;78;21629;-62
2021/04/14 06:25:07;;;;;;;6.37;5.78;;;;;;;16.65;61.02;99711.06;1788609;79;21181;-62
2021/04/14 06:27:39;;;;;;;6.05;5.45;;;;;;;16.66;61.00;99713.22;1772981;78;21130;-62
2021/04/14 06:30:05;;;;;;;5.83;5.33;;;;;;;16.67;61.00;99716.22;1776093;78;21203;-63
2021/04/14 06:32:34;;;;;;;6.10;5.47;;;;;;;16.67;60.95;99715.70;1780328;79;21591;-61
2021/04/14 06:35:05;;;;;;;6.75;5.67;;;;;;;16.67;60.93;99713.02;1771459;78;21142;-62
2021/04/14 06:37:32;;;;;;;6.30;5.70;;;;;;;16.67;60.91;99708.17;1780868;79;21182;-64
2021/04/14 06:45:36;;;;;;;6.25;5.65;;;;;;;16.71;60.86;99712.90;1797994;78;28747;-62
2021/04/14 06:48:12;;;;;;;6.03;5.15;;;;;;;16.68;60.80;99717.33;1782233;80;21163;-63
2021/04/14 06:50:51;;;;;;;7.12;5.85;;;;;;;16.72;60.78;99712.37;1742072;79;29011;-63
2021/04/14 06:53:42;;;;;;;6.05;5.45;;;;;;;16.68;60.75;99720.02;1735272;81;21111;-62
2021/04/14 06:56:14;;;;;;;7.00;5.60;;;;;;;16.69;60.74;99722.20;1734036;81;22056;-63
2021/04/14 06:58:48;;;;;;;;;;;;;;;16.69;60.83;99716.84;1742056;82;21234;-61
2021/04/14 07:01:55;;;;;;;6.30;5.67;;;;;;;16.69;60.78;99715.50;1772956;79;20289;-60
2021/04/14 07:04:33;;;;;;;5.85;5.25;;;;;;;16.62;60.92;99720.85;1762584;80;21166;-61
2021/04/14 07:07:01;;;;;;;6.55;5.70;;;;;;;16.63;60.94;99718.49;1760712;80;21230;-62
2021/04/14 07:09:36;;;;;;;7.28;5.87;;;;;;;16.64;60.90;99714.76;1772558;79;21368;-60
2021/04/14 07:12:08;;;;;;;6.55;5.70;;;;;;;16.65;60.84;99719.11;1755385;79;21182;-60
2021/04/14 07:14:35;;;;;;;6.70;6.00;;;;;;;16.67;60.80;99716.22;1772785;80;21239;-61
2021/04/14 07:17:38;;;;;;;6.17;5.58;;;;;;;16.68;60.76;99724.03;1772897;80;21118;-61
2021/04/14 07:20:21;;;;;;;6.35;5.37;;;;;;;16.70;60.72;99719.28;1773497;80;21586;-62
2021/04/14 07:23:12;;;;;;;6.70;5.90;;;;;;;16.71;60.70;99729.52;1770942;79;21214;-61
2021/04/14 07:26:03;;;;;;;6.00;4.95;;;;;;;16.70;60.73;99724.65;1771841;79;21136;-61
2021/04/14 07:28:56;;;;;;;6.17;5.35;;;;;;;16.71;60.65;99724.16;1774662;79;21654;-62
2021/04/14 07:31:46;;;;;;;6.15;5.42;;;;;;;16.73;60.63;99725.27;1762468;80;21665;-61
2021/04/14 07:34:31;;;;;;;6.00;5.40;;;;;;;16.74;60.54;99725.59;1773512;80;21125;-64
2021/04/14 07:37:25;;;;;;;6.83;5.75;;;;;;;16.75;60.49;99731.27;1779050;80;21254;-62
2021/04/14 07:40:17;;;;;;;6.00;5.42;;;;;;;16.77;60.43;99721.16;1764970;80;21134;-63
2021/04/14 07:43:05;;;;;;;6.42;5.78;;;;;;;16.81;60.41;99733.94;1775561;79;21146;-64
2021/04/14 07:45:37;;;;;;;6.95;5.83;;;;;;;16.84;60.44;99727.34;1762446;80;21594;-64
2021/04/14 07:48:17;;;;;;;6.42;5.72;;;;;;;16.88;60.50;99732.59;1778512;80;25153;-61
2021/04/14 07:50:52;;;;;;;7.80;5.45;;;;;;;16.93;60.48;99738.70;1758695;79;22107;-62
2021/04/14 07:53:26;;;;;;;6.60;5.40;;;;;;;16.96;60.43;99733.73;1741660;82;21162;-62
2021/04/14 07:56:07;;;;;;;6.50;5.45;;;;;;;17.01;60.43;99739.28;1740316;81;21167;-61
2021/04/14 07:58:38;;;;;;;7.53;5.50;;;;;;;17.04;60.34;99729.48;1710977;81;21202;-61
2021/04/14 08:01:24;;;;;;;6.12;5.33;;;;;;;17.09;60.27;99722.97;1728613;81;21191;-61
2021/04/14 08:03:53;;;;;;;7.67;6.12;;;;;;;17.14;60.19;99726.87;1733889;82;21406;-62
2021/04/14 08:06:27;;;;;;;6.78;5.65;;;;;;;17.19;60.15;99732.41;1699582;82;21229;-62
2021/04/14 08:08:56;;;;;;;5.80;5.28;;;;;;;17.22;60.11;99731.48;1730723;81;21199;-64
2021/04/14 08:11:31;;;;;;;6.22;5.58;;;;;;;17.27;60.09;99724.97;1735512;82;21185;-63
2021/04/14 08:14:13;;;;;;;6.30;5.15;;;;;;;17.26;60.14;99715.77;1719287;82;21194;-62
2021/04/14 08:16:47;;;;;;;6.40;5.15;;;;;;;17.38;60.10;99730.70;1735785;81;22132;-64
2021/04/14 08:19:28;;;;;;;6.00;5.40;;;;;;;17.43;60.15;99728.21;1730283;82;21626;-63
2021/04/14 08:22:06;;;;;;;6.12;5.47;;;;;;;17.48;60.21;99727.88;1697633;82;21199;-64
2021/04/14 08:24:53;;;;;;;5.72;5.17;;;;;;;17.55;60.09;99722.98;1728011;81;21122;-61
2021/04/14 08:27:41;;;;;;;5.83;5.15;;;;;;;17.61;60.06;99721.59;1730206;82;21158;-61
2021/04/14 08:30:18;;;;;;;5.37;4.87;;;;;;;17.67;59.96;99721.27;1697788;81;21175;-61
2021/04/14 08:32:56;;;;;;;6.30;5.60;;;;;;;17.72;59.90;99716.08;1728374;81;21202;-60
2021/04/14 08:35:37;;;;;;;5.75;4.92;;;;;;;17.79;59.84;99724.93;1705010;81;21166;-62
2021/04/14 08:38:29;;;;;;;6.62;5.25;;;;;;;17.85;59.63;99713.88;1731764;82;21592;-61
2021/04/14 08:41:00;;;;;;;5.87;5.25;;;;;;;17.91;59.47;99718.91;1727433;82;21135;-61
2021/04/14 08:43:41;;;;;;;5.25;4.75;;;;;;;17.95;59.23;99714.21;1728004;82;21193;-61
2021/04/14 08:46:30;;;;;;;6.08;5.47;;;;;;;17.99;59.10;99710.58;1727123;82;21174;-61
2021/04/14 08:49:04;;;;;;;5.25;4.75;;;;;;;18.03;59.01;99705.88;1732240;81;21179;-60
2021/04/14 08:51:40;;;;;;;;;;;;;;;18.06;59.01;99708.14;1737698;81;21211;-61
2021/04/14 08:54:08;;;;;;;5.30;4.78;;;;;;;18.11;58.90;99709.34;1727621;81;20306;-62
2021/04/14 08:56:38;;;;;;;6.62;5.90;;;;;;;18.06;58.88;99697.92;1678020;82;21194;-63
2021/04/14 08:59:10;;;;;;;7.22;5.70;;;;;;;18.11;58.87;99690.53;1729958;81;21071;-66
2021/04/14 09:01:37;;;;;;;5.35;4.85;;;;;;;18.17;58.75;99692.34;1770856;80;21126;-62
2021/04/14 09:04:10;;;;;;;5.33;4.83;;;;;;;18.20;58.62;99687.87;1774212;79;21193;-62
2021/04/14 09:06:43;;;;;;;6.30;5.10;;;;;;;18.25;58.63;99692.06;1775550;80;21149;-59
2021/04/14 09:09:19;;;;;;;5.75;5.17;;;;;;;18.30;58.63;99686.05;1783338;79;21364;-63
2021/04/14 09:12:07;;;;;;;6.47;4.87;;;;;;;18.35;58.49;99683.49;1755297;80;21178;-63
2021/04/14 09:14:35;;;;;;;6.10;5.50;;;;;;;18.40;58.35;99678.29;1757742;80;21210;-62
2021/04/14 09:17:14;;;;;;;6.20;4.75;;;;;;;18.46;58.33;99667.98;1777560;80;21207;-62
2021/04/14 09:19:47;;;;;;;5.72;5.12;;;;;;;18.52;58.23;99669.78;1769578;80;21174;-64
2021/04/14 09:22:26;;;;;;;6.10;5.37;;;;;;;18.59;58.17;99668.39;1755284;80;21196;-63
2021/04/14 09:25:04;;;;;;;5.10;4.60;;;;;;;18.67;58.20;99661.36;1775114;79;21226;-62
2021/04/14 09:27:39;;;;;;;7.28;4.83;;;;;;;18.73;58.22;99664.50;1770720;79;21210;-62
2021/04/14 09:30:33;;;;;;;5.25;4.70;;;;;;;18.82;58.08;99657.00;1776844;80;21630;-63
2021/04/14 09:33:10;;;;;;;5.53;4.75;;;;;;;18.91;58.36;99654.31;1774432;80;21210;-61
2021/04/14 09:35:56;;;;;;;5.30;4.78;;;;;;;18.99;58.62;99647.27;1772176;80;21574;-61
2021/04/14 09:38:33;;;;;;;4.97;4.47;;;;;;;19.08;57.11;99645.61;1740630;80;21615;-61
2021/04/14 09:41:13;;;;;;;5.00;4.55;;;;;;;19.16;56.91;99643.45;1734448;81;21206;-62
2021/04/14 09:43:46;;;;;;;13.80;7.70;;;;;;;19.25;56.66;99636.68;1731150;81;21205;-62
2021/04/14 09:46:31;;;;;;;11.08;7.92;;;;;;;19.36;60.57;99625.67;1726047;81;21086;-62
2021/04/14 09:49:12;;;;;;;9.53;7.10;;;;;;;19.55;61.25;99626.98;1732075;82;21238;-62
2021/04/14 09:51:42;;;;;;;9.18;6.35;;;;;;;19.69;60.08;99627.06;1731542;81;21199;-64
2021/04/14 09:54:19;;;;;;;9.93;7.10;;;;;;;19.82;59.47;99624.19;1720778;83;21237;-63
2021/04/14 09:56:51;;;;;;;10.98;6.95;;;;;;;19.92;59.10;99613.37;1745845;81;21166;-65
2021/04/14 09:59:36;;;;;;;10.85;7.47;;;;;;;20.03;59.31;99617.42;1722367;81;21216;-62
2021/04/14 10:02:15;;;;;;;8.78;6.70;;;;;;;20.13;59.36;99618.73;1766102;81;21199;-62
2021/04/14 10:04:43;;;;;;;9.43;6.97;;;;;;;20.23;59.96;99621.12;1745733;81;21207;-61
2021/04/14 10:07:20;;;;;;;8.95;6.70;;;;;;;20.35;60.07;99617.06;1752985;81;21174;-64
2021/04/14 10:09:49;;;;;;;8.38;6.62;;;;;;;20.45;59.93;99613.78;1744147;81;21193;-61
2021/04/14 10:12:28;;;;;;;8.30;6.60;;;;;;;20.56;59.31;99610.78;1740212;81;21168;-63
2021/04/14 10:14:58;;;;;;;11.78;6.87;;;;;;;20.65;59.24;99605.35;1761221;81;21231;-62
2021/04/14 10:17:30;;;;;;;9.30;6.92;;;;;;;20.77;58.77;99609.38;1733627;81;21144;-62
2021/04/14 10:20:25;;;;;;;8.95;6.55;;;;;;;20.88;58.28;99601.78;1750172;81;21605;-63
2021/04/14 10:22:52;;;;;;;10.05;6.60;;;;;;;20.98;57.89;99599.27;1735553;81;21204;-63
2021/04/14 10:25:32;;;;;;;8.13;6.08;;;;;;;21.11;57.32;99597.34;1749952;81;21176;-64
2021/04/14 10:28:16;;;;;;;8.10;6.60;;;;;;;21.21;56.85;99589.45;1726482;83;21388;-63
2021/04/14 10:30:48;;;;;;;8.25;6.50;;;;;;;21.32;56.30;99597.20;1723815;83;21619;-63
2021/04/14 10:33:22;;;;;;;9.60;6.22;;;;;;;21.45;55.74;99596.11;1734329;81;21190;-62
2021/04/14 10:35:51;;;;;;;8.05;6.35;;;;;;;21.56;55.34;99596.59;1709571;83;21199;-62
2021/04/14 10:38:33;;;;;;;7.80;6.03;;;;;;;21.67;54.91;99594.35;1728929;83;21134;-62
2021/04/14 10:41:20;;;;;;;8.17;6.03;;;;;;;21.79;54.58;99588.86;1716922;83;22400;-63
2021/04/14 10:43:47;;;;;;;7.58;5.72;;;;;;;21.90;54.25;99587.94;1688247;84;21170;-65
2021/04/14 10:46:35;;;;;;;15.75;6.70;;;;;;;22.03;53.96;99581.92;1711766;83;21174;-71
2021/04/14 10:49:05;;;;;;;10.00;7.40;;;;;;;22.15;54.19;99556.39;1722452;83;21155;-65
2021/04/14 10:51:45;;;;;;;11.38;8.40;;;;;;;22.33;57.60;99559.94;1717303;81;21187;-63
2021/04/14 10:54:16;;;;;;;13.50;8.48;;;;;;;22.55;58.80;99566.72;1722837;83;21247;-64
2021/04/14 10:56:44;;;;;;;11.25;8.10;;;;;;;22.75;59.40;99558.02;1719771;83;21187;-63
2021/04/14 10:59:14;;;;;;;11.43;7.25;;;;;;;22.97;59.26;99566.95;1718943;83;21176;-64
2021/04/14 11:01:46;;;;;;;11.18;7.65;;;;;;;23.18;59.09;99559.59;1723715;83;21206;-64
2021/04/14 11:04:37;;;;;;;9.18;6.80;;;;;;;;;;1722327;83;21155;-63
2021/04/14 11:07:14;;;;;;;9.73;7.55;;;;;;;23.56;58.47;99553.17;1722796;81;22761;-64
2021/04/14 11:09:43;;;;;;;10.50;7.45;;;;;;;23.75;57.95;99553.05;1710963;83;21680;-63
2021/04/14 11:12:18;;;;;;;9.43;6.20;;;;;;;23.91;57.62;99548.61;1725941;83;21207;-63
2021/04/14 11:14:50;;;;;;;9.60;6.85;;;;;;;24.08;57.21;99547.07;1719955;83;21670;-63
2021/04/14 11:17:31;;;;;;;9.20;6.70;;;;;;;24.26;56.56;99536.86;1723412;83;21115;-63
2021/04/14 11:20:12;;;;;;;9.73;6.95;;;;;;;24.41;56.10;99535.58;1714555;83;21369;-63
2021/04/14 11:22:48;;;;;;;8.78;6.60;;;;;;;24.57;55.41;99534.31;1716069;83;21210;-64
2021/04/14 11:25:33;;;;;;;8.60;6.47;;;;;;;24.72;54.72;99525.70;1726452;81;21164;-65
2021/04/14 11:28:08;;;;;;;10.13;6.58;;;;;;;24.93;54.24;99531.98;1710733;83;21655;-64
2021/04/14 11:30:52;;;;;;;9.13;6.28;;;;;;;25.22;53.80;99515.22;1719083;82;21200;-63
2021/04/14 11:33:38;;;;;;;9.23;6.55;;;;;;;25.44;53.50;99544.89;1711089;83;21384;-62
2021/04/14 11:36:27;;;;;;;6.42;5.67;;;;;;;25.57;53.48;99535.91;1691514;83;21195;-61
2021/04/14 11:39:18;;;;;;;6.35;5.47;;;;;;;25.60;53.78;99544.89;1705487;83;21135;-63
2021/04/14 11:42:05;;;;;;;9.00;6.53;;;;;;;25.60;53.68;99530.73;1727100;81;21155;-68
2021/04/14 11:44:57;;;;;;;8.08;5.97;;;;;;;25.65;53.19;99529.39;1723219;83;21207;-67
2021/04/14 11:47:30;;;;;;;7.45;6.10;;;;;;;25.73;52.55;99532.62;1721511;83;22171;-65
2021/04/14 11:50:16;;;;;;;7.50;6.20;;;;;;;25.87;51.08;99526.91;1725966;81;21211;-65
2021/04/14 11:52:56;;;;;;;8.20;6.08;;;;;;;26.00;49.83;99526.38;1702289;83;21208;-67
2021/04/14 11:55:38;;;;;;;6.78;5.55;;;;;;;26.11;49.23;99526.34;1707651;83;21186;-65
2021/04/14 11:58:08;;;;;;;7.80;6.20;;;;;;;26.12;48.97;99520.63;1712529;81;21207;-66
2021/04/14 12:00:41;;;;;;;6.35;5.75;;;;;;;26.16;48.43;99504.01;1698825;83;22386;-67
2021/04/14 12:03:36;;;;;;;6.72;5.70;;;;;;;26.10;48.40;99505.13;1708058;81;21210;-67
2021/04/14 12:06:05;;;;;;;8.05;5.45;;;;;;;26.12;48.17;99508.94;1706587;83;21173;-69